createdAt,value
2023-04-15T00:01:49.993Z,7.70
2023-04-15T00:04:18.493Z,9.40
2023-04-15T00:06:53.469Z,7.20
2023-04-15T00:09:21.648Z,6.70
2023-04-15T00:11:50.689Z,9.70
2023-04-15T00:14:18.595Z,8.00
2023-04-15T00:16:46.633Z,7.90
2023-04-15T00:19:14.649Z,8.80
2023-04-15T00:21:42.582Z,9.90
2023-04-15T00:24:10.601Z,9.00
2023-04-15T00:26:38.634Z,10.90
2023-04-15T00:29:06.737Z,8.50
2023-04-15T00:31:34.644Z,8.90
2023-04-15T00:34:02.670Z,7.80
2023-04-15T00:36:31.857Z,7.00
2023-04-15T00:38:59.957Z,7.20
2023-04-15T00:41:28.128Z,6.90
2023-04-15T00:43:56.050Z,7.50
2023-04-15T00:46:27.127Z,7.40
2023-04-15T00:48:55.420Z,9.30
2023-04-15T00:51:23.604Z,8.00
2023-04-15T00:53:52.155Z,7.30
2023-04-15T00:56:24.480Z,7.00
2023-04-15T00:58:52.586Z,10.70
2023-04-15T01:01:26.317Z,6.40
2023-04-15T01:03:56.671Z,6.80
2023-04-15T01:06:24.899Z,6.90
2023-04-15T01:08:54.274Z,7.70
2023-04-15T01:11:24.317Z,7.30
2023-04-15T01:13:53.043Z,9.30
2023-04-15T01:16:21.406Z,11.30
2023-04-15T01:18:49.522Z,10.00
2023-04-15T01:21:18.318Z,7.70
2023-04-15T01:23:49.183Z,7.50
2023-04-15T01:26:17.732Z,7.40
2023-04-15T01:28:47.099Z,7.60
2023-04-15T01:31:15.605Z,11.80
2023-04-15T01:33:43.959Z,8.90
2023-04-15T01:36:11.847Z,9.30
2023-04-15T01:38:39.973Z,7.70
2023-04-15T01:41:08.736Z,9.50
2023-04-15T01:43:37.425Z,7.30
2023-04-15T01:46:06.401Z,7.60
2023-04-15T01:48:34.675Z,8.20
2023-04-15T01:51:05.137Z,9.70
2023-04-15T01:53:33.696Z,7.50
2023-04-15T01:56:01.618Z,7.60
2023-04-15T01:58:29.575Z,5.90
2023-04-15T02:00:57.693Z,6.70
2023-04-15T02:03:25.871Z,6.80
2023-04-15T02:05:53.954Z,7.70
2023-04-15T02:08:22.693Z,9.80
2023-04-15T02:10:51.007Z,13.10
2023-04-15T02:13:19.164Z,7.20
2023-04-15T02:15:48.885Z,7.00
2023-04-15T02:18:17.175Z,6.80
2023-04-15T02:20:45.616Z,8.10
2023-04-15T02:23:13.762Z,9.20
2023-04-15T02:25:53.907Z,9.00
2023-04-15T02:28:22.470Z,7.90
2023-04-15T02:30:54.566Z,7.40
2023-04-15T02:33:22.626Z,8.40
2023-04-15T02:35:50.957Z,8.60
2023-04-15T02:38:18.907Z,9.10
2023-04-15T02:40:46.845Z,9.00
2023-04-15T02:43:14.779Z,10.90
2023-04-15T02:45:43.879Z,13.70
2023-04-15T02:48:11.943Z,20.70
2023-04-15T02:50:40.837Z,12.60
2023-04-15T02:53:10.596Z,8.10
2023-04-15T02:55:38.539Z,11.00
2023-04-15T02:58:07.692Z,7.90
2023-04-15T03:00:35.657Z,9.50
2023-04-15T03:03:05.339Z,11.20
2023-04-15T03:05:33.665Z,9.30
2023-04-15T03:08:03.262Z,8.90
2023-04-15T03:10:31.736Z,8.70
2023-04-15T03:12:59.711Z,8.10
2023-04-15T03:15:28.068Z,12.10
2023-04-15T03:17:56.647Z,10.20
2023-04-15T03:20:25.110Z,6.00
2023-04-15T03:22:53.330Z,6.80
2023-04-15T03:25:22.029Z,6.70
2023-04-15T03:27:49.891Z,6.40
2023-04-15T03:30:18.918Z,7.20
2023-04-15T03:32:47.113Z,18.10
2023-04-15T03:35:15.131Z,14.70
2023-04-15T03:37:42.973Z,11.00
2023-04-15T03:40:11.643Z,8.50
2023-04-15T03:42:39.493Z,8.10
2023-04-15T03:45:07.906Z,6.00
2023-04-15T03:47:36.022Z,6.30
2023-04-15T03:50:04.440Z,7.20
2023-04-15T03:52:32.319Z,9.00
2023-04-15T03:55:00.331Z,17.60
2023-04-15T03:57:28.258Z,17.80
2023-04-15T03:59:56.350Z,19.20
2023-04-15T04:02:24.496Z,14.00
2023-04-15T04:04:53.303Z,11.10
2023-04-15T04:07:23.811Z,11.80
2023-04-15T04:09:51.725Z,8.60
2023-04-15T04:12:19.697Z,10.40
2023-04-15T04:14:48.435Z,8.90
2023-04-15T04:17:16.282Z,13.90
2023-04-15T04:19:44.194Z,17.70
2023-04-15T04:22:12.267Z,14.90
2023-04-15T04:24:40.409Z,16.10
2023-04-15T04:27:08.500Z,19.30
2023-04-15T04:29:36.402Z,21.20
2023-04-15T04:32:04.354Z,42.50
2023-04-15T04:34:32.683Z,12.40
2023-04-15T04:37:00.848Z,12.70
2023-04-15T04:39:28.780Z,11.50
2023-04-15T04:41:56.639Z,15.80
2023-04-15T04:44:24.448Z,13.60
2023-04-15T04:46:52.474Z,13.00
2023-04-15T04:49:20.525Z,31.40
2023-04-15T04:51:49.024Z,24.90
2023-04-15T04:54:17.732Z,12.80
2023-04-15T04:56:45.661Z,16.60
2023-04-15T04:59:14.102Z,21.20
2023-04-15T05:01:42.172Z,21.70
2023-04-15T05:04:10.194Z,20.40
2023-04-15T05:06:38.320Z,16.90
2023-04-15T05:09:06.375Z,19.30
2023-04-15T05:11:34.353Z,16.90
2023-04-15T05:14:02.473Z,26.20
2023-04-15T05:16:30.447Z,25.50
2023-04-15T05:18:58.385Z,22.10
2023-04-15T05:21:27.787Z,14.70
2023-04-15T05:23:55.758Z,12.40
2023-04-15T05:26:24.941Z,12.10
2023-04-15T05:28:52.860Z,10.20
2023-04-15T05:31:21.256Z,9.90
2023-04-15T05:33:49.265Z,10.50
2023-04-15T05:36:17.483Z,13.70
2023-04-15T05:38:45.463Z,11.90
2023-04-15T05:41:17.098Z,13.60
2023-04-15T05:43:46.583Z,10.60
2023-04-15T05:46:14.497Z,9.10
2023-04-15T05:48:42.489Z,9.80
2023-04-15T05:51:10.596Z,9.90
2023-04-15T05:53:38.939Z,8.50
2023-04-15T05:56:07.170Z,11.00
2023-04-15T05:58:35.061Z,9.10
2023-04-15T06:01:03.620Z,7.60
2023-04-15T06:03:31.899Z,5.90
2023-04-15T06:06:01.026Z,10.20
2023-04-15T06:08:29.067Z,7.70
2023-04-15T06:10:58.747Z,11.90
2023-04-15T06:13:27.291Z,5.80
2023-04-15T06:15:55.574Z,7.10
2023-04-15T06:18:24.512Z,6.90
2023-04-15T06:20:52.512Z,7.20
2023-04-15T06:23:20.496Z,6.10
2023-04-15T06:25:48.664Z,6.10
2023-04-15T06:28:16.700Z,7.30
2023-04-15T06:30:44.709Z,6.80
2023-04-15T06:33:12.757Z,4.90
2023-04-15T06:35:41.168Z,4.90
2023-04-15T06:38:09.040Z,7.50
2023-04-15T06:40:37.017Z,8.10
2023-04-15T06:43:05.038Z,5.40
2023-04-15T06:45:33.357Z,5.60
2023-04-15T06:48:01.377Z,4.60
2023-04-15T06:50:29.377Z,5.60
2023-04-15T06:52:57.446Z,7.00
2023-04-15T06:55:25.312Z,5.50
2023-04-15T06:57:53.415Z,4.80
2023-04-15T07:00:21.450Z,4.60
2023-04-15T07:02:49.482Z,4.50
2023-04-15T07:05:17.459Z,5.30
2023-04-15T07:07:45.457Z,5.50
2023-04-15T07:10:15.060Z,6.20
2023-04-15T07:12:43.013Z,6.30
2023-04-15T07:15:11.280Z,11.10
2023-04-15T07:17:39.347Z,6.60
2023-04-15T07:20:08.136Z,6.90
2023-04-15T07:22:36.074Z,5.80
2023-04-15T07:25:04.446Z,6.00
2023-04-15T07:27:32.790Z,6.10
2023-04-15T07:30:01.098Z,7.30
2023-04-15T07:32:29.058Z,7.20
2023-04-15T07:34:57.069Z,6.30
2023-04-15T07:37:25.146Z,10.50
2023-04-15T07:39:53.836Z,8.40
2023-04-15T07:42:22.306Z,7.30
2023-04-15T07:44:50.235Z,8.90
2023-04-15T07:47:18.166Z,8.00
2023-04-15T07:49:46.580Z,8.60
2023-04-15T07:52:14.493Z,8.00
2023-04-15T07:54:42.556Z,8.20
2023-04-15T07:57:10.697Z,7.50
2023-04-15T07:59:38.637Z,7.70
2023-04-15T08:02:07.046Z,8.00
2023-04-15T08:04:35.319Z,8.80
2023-04-15T08:07:04.982Z,6.10
2023-04-15T08:09:33.029Z,8.80
2023-04-15T08:12:01.076Z,5.60
2023-04-15T08:14:29.495Z,6.30
2023-04-15T08:16:57.431Z,9.90
2023-04-15T08:19:25.386Z,7.90
2023-04-15T08:21:53.339Z,4.90
2023-04-15T08:24:21.663Z,6.30
2023-04-15T08:26:49.569Z,4.80
2023-04-15T08:29:17.503Z,6.30
2023-04-15T08:31:45.771Z,7.30
2023-04-15T08:34:13.719Z,4.90
2023-04-15T08:36:43.356Z,5.10
2023-04-15T08:39:11.414Z,5.20
2023-04-15T08:42:07.307Z,5.70
2023-04-15T08:44:37.068Z,7.00
2023-04-15T08:47:08.751Z,5.70
2023-04-15T08:49:44.214Z,8.50
2023-04-15T08:52:12.418Z,8.80
2023-04-15T08:54:40.511Z,9.60
2023-04-15T08:57:08.784Z,9.10
2023-04-15T08:59:36.713Z,11.50
2023-04-15T09:02:04.788Z,9.40
2023-04-15T09:04:33.957Z,10.20
2023-04-15T09:07:02.285Z,9.00
2023-04-15T09:09:30.260Z,12.00
2023-04-15T09:11:58.242Z,9.10
2023-04-15T09:14:26.164Z,9.10
2023-04-15T09:17:02.566Z,8.80
2023-04-15T09:19:31.648Z,10.90
2023-04-15T09:22:00.363Z,10.10
2023-04-15T09:24:39.458Z,10.60
2023-04-15T09:27:07.481Z,8.70
2023-04-15T09:29:35.446Z,8.80
2023-04-15T09:32:11.465Z,7.10
2023-04-15T09:34:39.358Z,10.30
2023-04-15T09:37:08.172Z,11.50
2023-04-15T09:39:47.454Z,9.00
2023-04-15T09:42:17.168Z,9.00
2023-04-15T09:44:45.553Z,7.20
2023-04-15T09:47:31.627Z,6.40
2023-04-15T09:50:01.966Z,8.50
2023-04-15T09:52:30.775Z,8.20
2023-04-15T09:54:59.947Z,7.10
2023-04-15T09:57:36.733Z,7.60
2023-04-15T10:00:08.294Z,7.30
2023-04-15T10:02:40.157Z,6.70
2023-04-15T10:05:12.293Z,6.40
2023-04-15T10:07:43.547Z,6.80
2023-04-15T10:10:11.783Z,7.50
2023-04-15T10:12:41.759Z,6.30
2023-04-15T10:15:21.838Z,4.50
2023-04-15T10:17:51.221Z,7.10
2023-04-15T10:20:19.830Z,5.30
2023-04-15T10:22:48.867Z,9.60
2023-04-15T10:25:16.992Z,6.80
2023-04-15T10:27:45.606Z,6.00
2023-04-15T10:30:13.826Z,6.20
2023-04-15T10:32:42.755Z,6.60
2023-04-15T10:35:12.090Z,5.70
2023-04-15T10:37:40.121Z,5.30
2023-04-15T10:40:31.734Z,6.40
2023-04-15T10:43:02.199Z,4.30
2023-04-15T10:45:35.647Z,4.50
2023-04-15T10:48:07.459Z,4.00
2023-04-15T10:50:37.803Z,5.30
2023-04-15T10:53:05.927Z,8.70
2023-04-15T10:55:35.402Z,4.90
2023-04-15T10:58:03.411Z,3.90
2023-04-15T11:00:33.188Z,3.80
2023-04-15T11:03:10.342Z,5.80
2023-04-15T11:05:41.629Z,4.70
2023-04-15T11:09:12.050Z,6.20
2023-04-15T11:12:07.236Z,4.90
2023-04-15T11:14:41.644Z,4.00
2023-04-15T11:17:09.741Z,6.40
2023-04-15T11:40:28.793Z,5.20
2023-04-15T11:43:12.566Z,3.90
2023-04-15T11:45:59.021Z,3.50
2023-04-15T11:48:27.775Z,4.30
2023-04-15T11:50:56.309Z,5.00
2023-04-15T11:53:24.012Z,5.90
2023-04-15T11:55:52.699Z,5.30
2023-04-15T11:58:24.666Z,5.30
2023-04-15T12:00:52.686Z,3.70
2023-04-15T12:03:19.776Z,3.40
2023-04-15T12:06:05.696Z,4.20
2023-04-15T12:08:50.877Z,5.10
2023-04-15T12:11:18.283Z,4.60
2023-04-15T12:13:49.268Z,4.30
2023-04-15T12:16:19.394Z,4.30
2023-04-15T12:18:47.696Z,4.70
2023-04-15T12:21:14.999Z,9.50
2023-04-15T12:23:52.682Z,6.70
2023-04-15T12:26:30.739Z,6.00
2023-04-15T12:29:07.055Z,5.00
2023-04-15T12:31:35.517Z,4.00
2023-04-15T12:34:03.613Z,3.90
2023-04-15T12:36:35.693Z,3.80
2023-04-15T12:39:06.315Z,3.90
2023-04-15T12:41:33.056Z,5.20
2023-04-15T12:43:59.981Z,9.90
2023-04-15T12:46:27.237Z,5.80
2023-04-15T12:48:53.961Z,4.10
2023-04-15T12:51:23.389Z,4.90
2023-04-15T12:53:50.392Z,4.10
2023-04-15T12:56:17.558Z,3.80
2023-04-15T12:58:44.159Z,3.30
2023-04-15T13:01:11.132Z,3.20
2023-04-15T13:03:37.840Z,3.80
2023-04-15T13:06:05.454Z,5.40
2023-04-15T13:08:32.539Z,3.60
2023-04-15T13:10:59.463Z,3.20
2023-04-15T13:13:26.789Z,3.50
2023-04-15T13:15:53.353Z,3.40
2023-04-15T13:18:20.035Z,3.60
2023-04-15T13:20:46.572Z,4.60
2023-04-15T13:23:13.211Z,4.10
2023-04-15T13:25:40.514Z,4.80
2023-04-15T13:28:07.070Z,4.00
2023-04-15T13:30:33.667Z,4.30
2023-04-15T13:33:00.201Z,4.40
2023-04-15T13:35:26.742Z,6.80
2023-04-15T13:37:54.368Z,4.70
2023-04-15T13:40:21.120Z,6.10
2023-04-15T13:42:48.066Z,5.60
2023-04-15T13:45:15.624Z,6.50
2023-04-15T14:05:12.634Z,7.10
2023-04-15T14:24:09.821Z,5.20
2023-04-15T14:26:37.760Z,6.90
2023-04-15T14:29:05.951Z,4.10
2023-04-15T14:36:00.131Z,7.00
2023-04-15T14:38:28.224Z,5.60
2023-04-15T14:40:56.246Z,7.30
2023-04-15T14:43:24.280Z,6.80
2023-04-15T14:45:52.308Z,4.90
2023-04-15T14:48:20.511Z,6.40
2023-04-15T17:12:16.313Z,10.50
2023-04-15T17:14:44.507Z,11.90
2023-04-15T17:35:23.615Z,17.40
2023-04-15T17:37:51.703Z,16.70
2023-04-15T17:40:21.441Z,15.80
2023-04-15T17:42:49.532Z,13.70
2023-04-15T17:45:17.654Z,11.80
2023-04-15T17:47:46.182Z,11.90
2023-04-15T17:50:15.065Z,13.50
2023-04-15T17:52:44.192Z,14.40
2023-04-15T17:55:12.668Z,18.70
2023-04-15T17:57:41.040Z,13.10
2023-04-15T18:00:10.808Z,13.10
2023-04-15T18:02:41.907Z,6.10
2023-04-15T18:05:10.600Z,6.70
2023-04-15T18:07:38.710Z,10.30
2023-04-15T18:10:08.349Z,20.30
2023-04-15T18:12:39.013Z,19.10
2023-04-15T18:15:10.471Z,19.00
2023-04-15T18:17:38.531Z,16.60
2023-04-15T18:20:07.444Z,16.70
2023-04-15T18:22:35.719Z,19.60
2023-04-15T18:25:04.704Z,17.30
2023-04-15T18:27:34.623Z,21.20
2023-04-15T18:30:02.630Z,21.30
2023-04-15T18:32:32.947Z,18.30
2023-04-15T18:35:02.137Z,19.50
2023-04-15T18:37:30.307Z,19.20
2023-04-15T18:39:59.025Z,21.50
2023-04-15T18:42:27.418Z,22.70
2023-04-15T18:44:55.478Z,23.70
2023-04-15T18:47:27.016Z,23.10
2023-04-15T18:49:55.664Z,19.10
2023-04-15T18:52:23.631Z,18.60
2023-04-15T18:54:52.022Z,18.70
2023-04-15T18:57:24.984Z,18.00
2023-04-15T19:00:00.045Z,19.10
2023-04-15T19:02:28.463Z,28.40
2023-04-15T19:04:57.345Z,20.90
2023-04-15T19:07:25.455Z,25.80
2023-04-15T19:09:53.688Z,32.00
2023-04-15T19:12:21.624Z,35.10
2023-04-15T19:14:49.942Z,42.40
2023-04-15T19:17:17.921Z,31.50
2023-04-15T19:19:46.174Z,27.70
2023-04-15T19:22:14.417Z,27.60
2023-04-15T19:24:43.305Z,26.20
2023-04-15T19:27:11.324Z,24.90
2023-04-15T19:29:39.571Z,23.00
2023-04-15T19:32:07.665Z,24.30
2023-04-15T19:34:36.001Z,24.00
2023-04-15T19:37:03.971Z,22.50
2023-04-15T19:39:32.164Z,24.70
2023-04-15T19:42:00.393Z,27.70
2023-04-15T19:44:28.608Z,27.60
2023-04-15T19:46:56.937Z,27.90
2023-04-15T19:49:26.754Z,25.90
2023-04-15T19:51:54.658Z,25.70
2023-04-15T19:54:22.896Z,27.30
2023-04-15T19:56:50.893Z,29.90
2023-04-15T19:59:18.913Z,32.40
2023-04-15T20:01:47.018Z,36.70
2023-04-15T20:04:15.141Z,34.10
2023-04-15T20:06:43.128Z,35.80
2023-04-15T20:09:11.619Z,38.90
2023-04-15T20:12:09.986Z,36.30
2023-04-15T20:14:27.807Z,34.30
2023-04-15T20:16:55.703Z,33.40
2023-04-15T20:19:23.647Z,36.80
2023-04-15T20:21:52.699Z,34.30
2023-04-15T20:24:21.660Z,37.30
2023-04-15T20:26:49.775Z,37.10
2023-04-15T20:29:18.204Z,35.70
2023-04-15T20:31:46.456Z,30.70
2023-04-15T20:34:14.926Z,32.40
2023-04-15T20:36:42.915Z,34.20
2023-04-15T20:39:10.885Z,35.00
2023-04-15T20:41:38.817Z,39.40
2023-04-15T20:44:06.725Z,42.00
2023-04-15T20:46:34.706Z,40.00
2023-04-15T20:49:02.794Z,35.40
2023-04-15T20:51:37.360Z,37.80
2023-04-15T20:56:34.088Z,44.10
2023-04-15T20:59:02.563Z,39.90
2023-04-15T21:01:30.648Z,38.30
2023-04-15T21:03:59.539Z,39.50
2023-04-15T21:06:27.984Z,40.10
2023-04-15T21:08:55.951Z,39.20
2023-04-15T21:11:43.160Z,44.70
2023-04-15T21:14:12.516Z,41.60
2023-04-15T21:16:41.211Z,41.40
2023-04-15T21:19:09.832Z,42.10
2023-04-15T21:21:39.769Z,40.00
2023-04-15T21:24:10.381Z,44.00
2023-04-15T21:26:38.553Z,48.90
2023-04-15T21:29:08.692Z,42.50
2023-04-15T21:31:38.764Z,46.70
2023-04-15T21:34:06.804Z,50.70
2023-04-15T21:36:35.312Z,45.20
2023-04-15T21:39:03.468Z,45.40
2023-04-15T21:41:32.800Z,42.00
2023-04-15T21:44:00.976Z,40.60
2023-04-15T21:46:32.837Z,48.40
2023-04-15T21:49:03.786Z,46.30
2023-04-15T21:51:32.801Z,44.00
2023-04-15T21:54:00.788Z,49.50
2023-04-15T21:56:28.770Z,42.40
2023-04-15T21:58:57.661Z,43.60
2023-04-15T22:01:26.677Z,41.60
2023-04-15T22:03:55.030Z,43.60
2023-04-15T22:06:23.212Z,46.60
2023-04-15T22:09:10.651Z,49.10
2023-04-15T22:11:39.408Z,46.90
2023-04-15T22:14:07.428Z,43.90
2023-04-15T22:16:35.361Z,44.40
2023-04-15T22:19:03.494Z,42.00
2023-04-15T22:21:31.979Z,39.00
2023-04-15T22:24:36.706Z,39.90
2023-04-15T22:26:47.849Z,45.80
2023-04-15T22:29:15.833Z,40.00
2023-04-15T22:31:43.883Z,40.50
2023-04-15T22:34:11.987Z,38.70
2023-04-15T22:36:39.876Z,36.10
2023-04-15T22:39:07.939Z,42.10
2023-04-15T22:41:36.510Z,37.90
2023-04-15T22:44:04.456Z,39.60
2023-04-15T22:46:32.422Z,43.00
2023-04-15T22:49:01.009Z,48.50
2023-04-15T22:51:29.290Z,39.10
2023-04-15T22:53:57.369Z,37.30
2023-04-15T22:56:25.554Z,42.30
2023-04-15T22:58:53.514Z,39.00
2023-04-15T23:01:21.466Z,41.30
2023-04-15T23:03:57.339Z,39.40
2023-04-15T23:06:30.348Z,38.60
2023-04-15T23:08:58.272Z,38.80
2023-04-15T23:11:26.158Z,40.50
2023-04-15T23:13:54.127Z,44.10
2023-04-15T23:16:22.455Z,44.60
2023-04-15T23:18:50.488Z,46.40
2023-04-15T23:21:18.352Z,39.60
2023-04-15T23:23:46.258Z,43.50
2023-04-15T23:26:14.277Z,45.50
2023-04-15T23:28:42.176Z,56.50
2023-04-15T23:31:11.343Z,54.40
2023-04-15T23:33:39.278Z,53.30
2023-04-15T23:36:07.578Z,53.70
2023-04-15T23:38:35.707Z,60.00
2023-04-15T23:41:03.649Z,57.40
2023-04-15T23:43:31.725Z,61.00
2023-04-15T23:45:59.599Z,57.70
2023-04-15T23:48:27.474Z,51.20
2023-04-15T23:50:55.408Z,53.80
2023-04-15T23:53:23.347Z,58.70
2023-04-15T23:55:51.413Z,59.40
2023-04-15T23:58:19.296Z,54.10
